MDT,Max TemperatureF,Mean TemperatureF,Min TemperatureF,Max Dew PointF,MeanDew PointF,Min DewpointF,Max Humidity, Mean Humidity, Min Humidity, Max Sea Level PressureIn, Mean Sea Level PressureIn, Min Sea Level PressureIn, Max VisibilityMiles, Mean VisibilityMiles, Min VisibilityMiles, Max Wind SpeedMPH, Mean Wind SpeedMPH, Max Gust SpeedMPH,PrecipitationIn, CloudCover, Events, WindDirDegrees
2012-9-1,96,79,62,57,50,45,55,40,22,29.92,29.78,29.68,10,10,7,22,9,29,0.00,0,,159
2012-9-2,84,68,51,48,36,21,63,33,11,29.94,29.88,29.79,10,10,9,21,8,29,0.00,1,,265
2012-9-3,84,65,46,39,32,28,62,35,14,29.95,29.92,29.89,10,10,4,17,5,26,0.00,0,,289
2012-9-4,75,58,42,43,37,30,70,47,25,30.06,29.96,29.91,10,10,6,25,6,31,0.00,1,,295
2012-9-5,78,62,46,43,38,36,71,45,21,30.06,29.98,29.89,10,10,4,16,7,22,0.00,1,,289
2012-9-6,69,58,46,46,42,37,71,51,37,30.20,30.06,29.95,10,10,2,18,10,28,0.00,3,,344
2012-9-7,75,56,37,43,37,32,87,55,23,30.29,30.22,30.17,10,10,5,15,5,18,0.00,0,,275
2012-9-8,71,56,42,46,35,25,76,47,19,30.30,30.22,30.14,10,10,7,15,7,16,0.00,0,,21
2012-9-9,93,66,39,43,33,25,61,36,13,30.17,29.93,29.69,10,10,10,13,3,,0.00,0,,196
2012-9-10,89,70,51,54,38,28,58,36,15,29.76,29.66,29.63,10,9,2,17,5,23,0.00,0,,235
2012-9-11,69,56,42,36,28,18,58,32,19,30.11,29.95,29.76,10,9,3,22,12,28,0.00,0,,302
2012-9-12,69,51,33,27,22,18,70,34,16,30.32,30.24,30.11,10,10,3,20,9,26,0.00,1,,283
2012-9-13,75,52,30,36,28,19,70,42,20,30.37,30.31,30.24,10,9,2,30,7,37,0.00,0,,276
2012-9-14,84,60,35,43,34,27,81,45,19,30.38,30.23,30.00,10,10,4,16,4,16,0.00,0,,180
2012-9-15,84,65,46,37,34,30,62,33,15,30.07,29.99,29.95,10,10,5,18,7,20,0.00,0,,334
2012-9-16,64,56,48,43,36,30,67,46,32,30.24,30.18,30.06,10,10,7,14,8,20,0.00,3,,11
2012-9-17,62,48,33,34,27,18,87,45,19,30.25,30.17,30.02,10,9,3,10,5,,0.00,2,,318
2012-9-18,82,60,39,37,32,27,70,34,16,30.02,29.86,29.76,10,10,3,21,9,26,0.00,1,,266
2012-9-19,66,57,48,36,31,25,58,37,22,30.13,30.05,29.85,10,10,6,23,12,33,0.00,1,,321
2012-9-20,71,56,42,37,33,27,61,41,27,30.08,30.01,29.96,10,10,3,22,7,29,0.00,2,,289
2012-9-21,69,54,39,36,33,28,76,44,27,30.22,30.08,30.00,10,9,3,20,8,26,0.00,0,,345
2012-9-22,66,50,33,27,24,19,70,39,18,30.34,30.27,30.21,10,10,1,9,6,,0.00,0,,57
2012-9-23,75,54,32,34,27,19,60,40,22,30.24,30.17,30.07,10,10,6,10,3,,0.00,0,,32
2012-9-24,82,60,37,41,33,27,65,41,19,30.07,29.95,29.87,10,9,0,14,4,18,0.00,0,,286
2012-9-25,77,58,39,46,39,32,76,54,32,29.99,29.94,29.92,10,9,2,10,2,,0.00,0,,23
2012-9-26,84,62,41,43,38,36,81,46,19,30.05,30.01,29.98,10,10,3,15,4,,0.00,1,,313
2012-9-27,73,63,51,52,44,37,77,52,35,30.15,30.10,30.03,10,9,3,13,5,,0.00,4,Thunderstorm,313
2012-9-28,84,64,44,48,41,36,87,54,20,30.13,30.06,29.98,10,10,8,20,4,24,0.00,1,,187
2012-9-29,86,67,48,46,37,30,58,36,18,29.98,29.92,29.88,10,10,9,15,7,20,0.00,0,,216
2012-9-30,73,58,44,50,42,36,93,61,31,30.26,30.09,29.98,10,10,7,23,5,32,0.03,2,Thunderstorm,351